Time,TemperatureF,DewpointF,PressureIn,WindDirection,WindDirectionDegrees,WindSpeedMPH,WindSpeedGustMPH,Humidity,HourlyPrecipIn,Conditions,Clouds,dailyrainin,SoftwareType,DateUTC
2013-08-31 00:00:00,70.8,67.1,29.83,SSW,205,0.0,0.0,88,0.00,,,0.01,Wunderground v.1.13,2013-08-31 04:00:00,
2013-08-31 00:05:00,70.6,66.9,29.83,SSW,205,0.0,0.0,88,0.00,,,0.00,Wunderground v.1.13,2013-08-31 04:05:00,
2013-08-31 00:15:00,70.3,66.9,29.82,SSW,205,0.0,0.0,89,0.00,,,0.00,Wunderground v.1.13,2013-08-31 04:15:00,
2013-08-31 00:25:00,70.0,66.6,29.82,SSW,205,0.0,0.0,89,0.00,,,0.00,Wunderground v.1.13,2013-08-31 04:25:00,
2013-08-31 00:35:00,69.7,66.6,29.82,SSW,205,0.0,0.0,90,0.00,,,0.00,Wunderground v.1.13,2013-08-31 04:35:00,
2013-08-31 00:45:00,69.5,66.4,29.82,SSW,205,0.0,0.0,90,0.00,,,0.00,Wunderground v.1.13,2013-08-31 04:45:00,
2013-08-31 00:50:00,69.4,66.3,29.82,SSW,205,0.0,0.0,90,0.00,,,0.00,Wunderground v.1.13,2013-08-31 04:50:00,
2013-08-31 01:00:00,69.6,66.9,29.82,SSW,205,0.0,0.0,91,0.00,,,0.00,Wunderground v.1.13,2013-08-31 05:00:00,
2013-08-31 01:05:00,69.8,67.1,29.82,SSW,205,0.0,0.0,91,0.00,,,0.00,Wunderground v.1.13,2013-08-31 05:05:00,
2013-08-31 01:10:00,69.5,66.4,29.82,SSW,205,0.0,0.0,90,0.00,,,0.00,Wunderground v.1.13,2013-08-31 05:10:00,
2013-08-31 01:20:00,69.6,66.9,29.82,SSW,205,0.0,0.0,91,0.00,,,0.00,Wunderground v.1.13,2013-08-31 05:20:00,
2013-08-31 01:25:00,70.2,67.8,29.82,SSW,193,0.0,0.0,92,0.00,,,0.00,Wunderground v.1.13,2013-08-31 05:25:00,
2013-08-31 01:30:00,70.5,67.4,29.82,SSW,193,0.0,0.0,90,0.00,,,0.00,Wunderground v.1.13,2013-08-31 05:30:00,
2013-08-31 01:40:00,70.0,66.6,29.82,SSW,193,0.0,0.0,89,0.00,,,0.00,Wunderground v.1.13,2013-08-31 05:40:00,
2013-08-31 01:50:00,69.8,66.7,29.82,SSW,193,0.0,0.0,90,0.00,,,0.00,Wunderground v.1.13,2013-08-31 05:50:00,
2013-08-31 01:55:00,70.3,67.5,29.81,SSW,193,0.0,0.0,91,0.00,,,0.00,Wunderground v.1.13,2013-08-31 05:55:00,
2013-08-31 02:05:00,70.6,67.5,29.82,SSW,192,1.0,1.0,90,0.00,,,0.00,Wunderground v.1.13,2013-08-31 06:05:00,
2013-08-31 02:15:00,70.7,67.3,29.82,SSW,192,0.0,0.0,89,0.00,,,0.00,Wunderground v.1.13,2013-08-31 06:15:00,
2013-08-31 02:25:00,70.8,67.4,29.82,SSW,192,0.0,0.0,89,0.00,,,0.00,Wunderground v.1.13,2013-08-31 06:25:00,
2013-08-31 02:35:00,71.1,67.7,29.82,SSW,192,0.0,2.0,89,0.00,,,0.00,Wunderground v.1.13,2013-08-31 06:35:00,
2013-08-31 02:45:00,71.0,67.6,29.81,SSE,158,3.0,3.0,89,0.00,,,0.00,Wunderground v.1.13,2013-08-31 06:45:00,
2013-08-31 02:55:00,71.1,67.7,29.81,SSE,153,2.0,2.0,89,0.00,,,0.00,Wunderground v.1.13,2013-08-31 06:55:00,
2013-08-31 03:00:00,71.2,67.8,29.81,SSE,153,1.0,1.0,89,0.00,,,0.00,Wunderground v.1.13,2013-08-31 07:00:00,
2013-08-31 03:10:00,71.3,67.6,29.81,SSE,152,1.0,1.0,88,0.00,,,0.00,Wunderground v.1.13,2013-08-31 07:10:00,
2013-08-31 03:20:00,71.2,67.5,29.80,SSE,152,2.0,2.0,88,0.00,,,0.00,Wunderground v.1.13,2013-08-31 07:20:00,
2013-08-31 03:30:00,70.9,67.2,29.80,SSE,152,3.0,3.0,88,0.00,,,0.00,Wunderground v.1.13,2013-08-31 07:30:00,
2013-08-31 03:40:00,70.9,67.5,29.80,SSE,152,0.0,0.0,89,0.00,,,0.00,Wunderground v.1.13,2013-08-31 07:40:00,
2013-08-31 03:50:00,70.9,67.2,29.79,SSE,152,1.0,2.0,88,0.00,,,0.00,Wunderground v.1.13,2013-08-31 07:50:00,
2013-08-31 04:00:00,70.7,67.3,29.79,SSE,152,1.0,1.0,89,0.00,,,0.00,Wunderground v.1.13,2013-08-31 08:00:00,
2013-08-31 04:10:00,70.7,67.3,29.79,SSE,152,0.0,0.0,89,0.00,,,0.00,Wunderground v.1.13,2013-08-31 08:10:00,
2013-08-31 04:20:00,70.8,67.4,29.79,SSE,152,0.0,0.0,89,0.00,,,0.00,Wunderground v.1.13,2013-08-31 08:20:00,
2013-08-31 04:30:00,70.9,67.5,29.79,SSE,155,1.0,2.0,89,0.00,,,0.00,Wunderground v.1.13,2013-08-31 08:30:00,
2013-08-31 04:40:00,71.2,67.8,29.83,North,351,2.0,2.0,89,0.00,,,0.00,Wunderground v.1.13,2013-08-31 08:40:00,
2013-08-31 04:50:00,71.9,68.2,29.83,NW,308,1.0,3.0,88,0.00,,,0.00,Wunderground v.1.13,2013-08-31 08:50:00,
2013-08-31 04:55:00,72.0,67.9,29.84,NW,321,1.0,1.0,87,0.00,,,0.00,Wunderground v.1.13,2013-08-31 08:55:00,
2013-08-31 05:05:00,71.5,67.8,29.84,WNW,287,2.0,2.0,88,1.65,,,0.15,Wunderground v.1.13,2013-08-31 09:05:00,
2013-08-31 05:15:00,70.0,66.9,29.82,NNE,24,2.0,2.0,90,0.67,,,0.45,Wunderground v.1.13,2013-08-31 09:15:00,
2013-08-31 05:20:00,69.5,66.8,29.82,NE,36,2.0,2.0,91,0.18,,,0.46,Wunderground v.1.13,2013-08-31 09:20:00,
2013-08-31 05:30:00,69.2,66.8,29.82,East,101,1.0,1.0,92,0.05,,,0.46,Wunderground v.1.13,2013-08-31 09:30:00,
2013-08-31 05:40:00,69.2,67.1,29.84,SE,131,2.0,2.0,93,0.00,,,0.46,Wunderground v.1.13,2013-08-31 09:40:00,
2013-08-31 05:45:00,69.2,67.1,29.83,SE,124,1.0,5.0,93,0.00,,,0.46,Wunderground v.1.13,2013-08-31 09:45:00,
2013-08-31 05:50:00,69.2,67.1,29.82,SSE,164,4.0,11.0,93,0.00,,,0.46,Wunderground v.1.13,2013-08-31 09:50:00,
2013-08-31 06:00:00,69.2,67.1,29.82,ESE,114,9.0,9.0,93,0.00,,,0.46,Wunderground v.1.13,2013-08-31 10:00:00,
2013-08-31 06:10:00,69.4,67.3,29.81,SE,126,9.0,11.0,93,0.00,,,0.46,Wunderground v.1.13,2013-08-31 10:10:00,
2013-08-31 06:20:00,69.4,67.3,29.79,SE,141,10.0,10.0,93,0.00,,,0.46,Wunderground v.1.13,2013-08-31 10:20:00,
2013-08-31 06:25:00,69.5,67.4,29.79,SE,136,10.0,10.0,93,0.00,,,0.46,Wunderground v.1.13,2013-08-31 10:25:00,
2013-08-31 06:40:00,69.5,67.4,29.81,ESE,120,7.0,11.0,93,0.00,,,0.46,Wunderground v.1.13,2013-08-31 10:40:00,
2013-08-31 06:50:00,69.6,67.5,29.81,SE,128,8.0,8.0,93,0.00,,,0.46,Wunderground v.1.13,2013-08-31 10:50:00,
2013-08-31 06:55:00,69.5,67.4,29.81,SE,136,8.0,9.0,93,0.00,,,0.46,Wunderground v.1.13,2013-08-31 10:55:00,
2013-08-31 07:05:00,69.5,67.4,29.80,SE,130,9.0,12.0,93,0.00,,,0.46,Wunderground v.1.13,2013-08-31 11:05:00,
2013-08-31 07:15:00,69.7,67.6,29.81,SE,140,7.0,7.0,93,0.00,,,0.46,Wunderground v.1.13,2013-08-31 11:15:00,
2013-08-31 07:25:00,69.6,67.5,29.80,SSE,148,7.0,7.0,93,0.00,,,0.46,Wunderground v.1.13,2013-08-31 11:25:00,
2013-08-31 07:30:00,69.4,67.3,29.80,SSE,158,6.0,6.0,93,0.00,,,0.46,Wunderground v.1.13,2013-08-31 11:30:00,
2013-08-31 07:40:00,69.7,67.6,29.81,SSE,149,4.0,4.0,93,0.00,,,0.46,Wunderground v.1.13,2013-08-31 11:40:00,
2013-08-31 07:50:00,69.7,67.3,29.81,SSW,192,5.0,6.0,92,0.00,,,0.46,Wunderground v.1.13,2013-08-31 11:50:00,
2013-08-31 08:00:00,69.7,67.3,29.81,South,174,7.0,7.0,92,0.00,,,0.46,Wunderground v.1.13,2013-08-31 12:00:00,
2013-08-31 08:05:00,69.8,67.4,29.80,SSE,157,7.0,7.0,92,0.00,,,0.46,Wunderground v.1.13,2013-08-31 12:05:00,
2013-08-31 08:15:00,70.3,67.5,29.81,SW,214,6.0,6.0,91,0.00,,,0.46,Wunderground v.1.13,2013-08-31 12:15:00,
2013-08-31 08:25:00,70.5,67.7,29.82,SSW,202,4.0,5.0,91,0.00,,,0.46,Wunderground v.1.13,2013-08-31 12:25:00,
2013-08-31 08:35:00,70.5,68.1,29.81,SW,224,5.0,5.0,92,0.00,,,0.47,Wunderground v.1.13,2013-08-31 12:35:00,
2013-08-31 08:45:00,70.7,68.6,29.81,SSW,210,6.0,8.0,93,0.00,,,0.47,Wunderground v.1.13,2013-08-31 12:45:00,
2013-08-31 08:50:00,70.8,68.4,29.82,SSW,200,6.0,9.0,92,0.00,,,0.47,Wunderground v.1.13,2013-08-31 12:50:00,
2013-08-31 09:00:00,71.0,68.9,29.83,West,273,2.0,4.0,93,0.00,,,0.47,Wunderground v.1.13,2013-08-31 13:00:00,
2013-08-31 09:10:00,71.2,69.1,29.82,South,182,2.0,3.0,93,0.00,,,0.47,Wunderground v.1.13,2013-08-31 13:10:00,
2013-08-31 09:20:00,71.6,69.2,29.83,SSW,206,4.0,5.0,92,0.00,,,0.47,Wunderground v.1.13,2013-08-31 13:20:00,
2013-08-31 09:25:00,71.9,69.4,29.82,SSW,200,4.0,5.0,92,0.00,,,0.47,Wunderground v.1.13,2013-08-31 13:25:00,
2013-08-31 09:35:00,72.5,69.7,29.83,SE,146,5.0,7.0,91,0.00,,,0.47,Wunderground v.1.13,2013-08-31 13:35:00,
2013-08-31 09:45:00,73.1,69.7,29.83,South,173,8.0,10.0,89,0.00,,,0.47,Wunderground v.1.13,2013-08-31 13:45:00,
2013-08-31 09:50:00,73.5,70.1,29.84,SSE,160,9.0,9.0,89,0.00,,,0.47,Wunderground v.1.13,2013-08-31 13:50:00,
2013-08-31 09:55:00,73.9,70.1,29.84,South,172,8.0,8.0,88,0.00,,,0.47,Wunderground v.1.13,2013-08-31 13:55:00,
2013-08-31 10:05:00,74.6,70.1,29.83,South,172,7.0,7.0,86,0.00,,,0.47,Wunderground v.1.13,2013-08-31 14:05:00,
2013-08-31 10:15:00,74.9,70.1,29.83,South,186,6.0,6.0,85,0.00,,,0.47,Wunderground v.1.13,2013-08-31 14:15:00,
2013-08-31 10:20:00,75.1,70.3,29.84,SSE,157,7.0,7.0,85,0.00,,,0.47,Wunderground v.1.13,2013-08-31 14:20:00,
2013-08-31 10:30:00,75.6,70.4,29.84,SSE,151,7.0,8.0,84,0.00,,,0.47,Wunderground v.1.13,2013-08-31 14:30:00,
2013-08-31 10:40:00,76.2,70.7,29.84,SSE,155,6.0,7.0,83,0.00,,,0.47,Wunderground v.1.13,2013-08-31 14:40:00,
2013-08-31 10:45:00,76.6,71.0,29.84,SSE,163,5.0,5.0,83,0.00,,,0.47,Wunderground v.1.13,2013-08-31 14:45:00,
2013-08-31 10:55:00,76.5,70.6,29.84,South,182,5.0,5.0,82,0.00,,,0.47,Wunderground v.1.13,2013-08-31 14:55:00,
2013-08-31 11:05:00,76.6,70.7,29.84,SSE,163,5.0,5.0,82,0.00,,,0.47,Wunderground v.1.13,2013-08-31 15:05:00,
2013-08-31 11:15:00,76.9,71.0,29.84,SSW,197,5.0,5.0,82,0.00,,,0.47,Wunderground v.1.13,2013-08-31 15:15:00,
2013-08-31 11:25:00,77.6,71.7,29.84,SSE,167,4.0,7.0,82,0.00,,,0.47,Wunderground v.1.13,2013-08-31 15:25:00,
2013-08-31 11:30:00,78.1,71.8,29.84,South,175,6.0,6.0,81,0.00,,,0.47,Wunderground v.1.13,2013-08-31 15:30:00,
2013-08-31 11:40:00,78.7,72.4,29.84,SSE,162,6.0,7.0,81,0.00,,,0.47,Wunderground v.1.13,2013-08-31 15:40:00,
2013-08-31 11:50:00,79.1,72.4,29.84,South,188,7.0,8.0,80,0.00,,,0.47,Wunderground v.1.13,2013-08-31 15:50:00,
2013-08-31 12:00:00,79.4,72.7,29.83,SSW,205,5.0,6.0,80,0.00,,,0.47,Wunderground v.1.13,2013-08-31 16:00:00,
2013-08-31 12:05:00,79.7,72.6,29.83,WNW,290,6.0,6.0,79,0.00,,,0.47,Wunderground v.1.13,2013-08-31 16:05:00,
2013-08-31 12:10:00,80.1,73.0,29.83,SSW,196,5.0,5.0,79,0.00,,,0.47,Wunderground v.1.13,2013-08-31 16:10:00,
2013-08-31 12:20:00,80.3,72.8,29.83,South,186,5.0,6.0,78,0.00,,,0.47,Wunderground v.1.13,2013-08-31 16:20:00,
2013-08-31 12:30:00,80.9,73.0,29.83,SSE,156,5.0,5.0,77,0.00,,,0.47,Wunderground v.1.13,2013-08-31 16:30:00,
2013-08-31 12:40:00,81.2,72.9,29.82,SSW,205,7.0,11.0,76,0.00,,,0.47,Wunderground v.1.13,2013-08-31 16:40:00,
2013-08-31 12:45:00,81.4,73.1,29.82,SSE,166,7.0,7.0,76,0.00,,,0.47,Wunderground v.1.13,2013-08-31 16:45:00,
2013-08-31 12:55:00,81.9,73.2,29.82,South,190,5.0,5.0,75,0.00,,,0.47,Wunderground v.1.13,2013-08-31 16:55:00,
2013-08-31 13:00:00,81.6,72.9,29.82,South,180,6.0,6.0,75,0.00,,,0.47,Wunderground v.1.13,2013-08-31 17:00:00,
2013-08-31 13:10:00,81.6,73.3,29.82,SSW,193,7.0,9.0,76,0.00,,,0.47,Wunderground v.1.13,2013-08-31 17:10:00,
2013-08-31 13:20:00,82.0,72.9,29.81,South,188,7.0,13.0,74,0.00,,,0.47,Wunderground v.1.13,2013-08-31 17:20:00,
2013-08-31 13:25:00,81.9,73.2,29.81,SSW,202,7.0,7.0,75,0.00,,,0.47,Wunderground v.1.13,2013-08-31 17:25:00,
2013-08-31 13:30:00,82.1,73.4,29.81,SSW,196,7.0,8.0,75,0.00,,,0.47,Wunderground v.1.13,2013-08-31 17:30:00,
2013-08-31 13:35:00,82.5,73.4,29.81,SSW,211,7.0,7.0,74,0.00,,,0.47,Wunderground v.1.13,2013-08-31 17:35:00,
2013-08-31 13:45:00,83.3,74.1,29.81,SSW,194,6.0,7.0,74,0.00,,,0.47,Wunderground v.1.13,2013-08-31 17:45:00,
2013-08-31 13:55:00,82.8,73.7,29.81,WSW,248,7.0,7.0,74,0.00,,,0.47,Wunderground v.1.13,2013-08-31 17:55:00,
2013-08-31 14:00:00,83.5,74.3,29.81,SW,214,4.0,7.0,74,0.00,,,0.47,Wunderground v.1.13,2013-08-31 18:00:00,
2013-08-31 14:10:00,83.0,73.0,29.81,South,174,7.0,7.0,72,0.00,,,0.47,Wunderground v.1.13,2013-08-31 18:10:00,
2013-08-31 14:20:00,83.3,73.3,29.82,South,173,7.0,7.0,72,0.00,,,0.47,Wunderground v.1.13,2013-08-31 18:20:00,
2013-08-31 14:30:00,83.9,73.1,29.81,SSE,167,7.0,7.0,70,0.00,,,0.47,Wunderground v.1.13,2013-08-31 18:30:00,
2013-08-31 14:35:00,83.9,73.5,29.81,South,186,7.0,12.0,71,0.00,,,0.47,Wunderground v.1.13,2013-08-31 18:35:00,
2013-08-31 14:40:00,83.8,72.5,29.81,South,182,7.0,8.0,69,0.00,,,0.47,Wunderground v.1.13,2013-08-31 18:40:00,
2013-08-31 14:50:00,84.6,72.9,29.80,South,181,5.0,7.0,68,0.00,,,0.47,Wunderground v.1.13,2013-08-31 18:50:00,
2013-08-31 15:00:00,84.6,73.7,29.80,SSE,165,6.0,8.0,70,0.00,,,0.47,Wunderground v.1.13,2013-08-31 19:00:00,
2013-08-31 15:10:00,84.1,72.8,29.80,SW,214,7.0,7.0,69,0.00,,,0.47,Wunderground v.1.13,2013-08-31 19:10:00,
2013-08-31 15:15:00,84.1,73.3,29.79,SSW,209,7.0,7.0,70,0.00,,,0.47,Wunderground v.1.13,2013-08-31 19:15:00,
2013-08-31 15:20:00,84.5,73.2,29.79,South,190,6.0,9.0,69,0.00,,,0.47,Wunderground v.1.13,2013-08-31 19:20:00,
2013-08-31 15:30:00,84.7,73.0,29.79,SSE,148,7.0,10.0,68,0.00,,,0.47,Wunderground v.1.13,2013-08-31 19:30:00,
2013-08-31 15:40:00,84.5,73.2,29.79,SSE,148,7.0,8.0,69,0.00,,,0.47,Wunderground v.1.13,2013-08-31 19:40:00,
2013-08-31 15:50:00,84.3,73.0,29.79,SSW,194,7.0,7.0,69,0.00,,,0.47,Wunderground v.1.13,2013-08-31 19:50:00,
2013-08-31 16:00:00,84.9,73.2,29.79,SSE,156,4.0,5.0,68,0.00,,,0.47,Wunderground v.1.13,2013-08-31 20:00:00,
2013-08-31 16:10:00,84.5,72.8,29.79,SSW,202,5.0,12.0,68,0.00,,,0.47,Wunderground v.1.13,2013-08-31 20:10:00,
2013-08-31 16:15:00,84.2,72.5,29.78,SW,224,6.0,6.0,68,0.00,,,0.47,Wunderground v.1.13,2013-08-31 20:15:00,
2013-08-31 16:20:00,83.9,71.8,29.78,SSE,161,6.0,6.0,67,0.00,,,0.47,Wunderground v.1.13,2013-08-31 20:20:00,
2013-08-31 16:30:00,83.0,71.8,29.78,SSW,206,5.0,5.0,69,0.00,,,0.47,Wunderground v.1.13,2013-08-31 20:30:00,
2013-08-31 16:40:00,82.3,71.5,29.78,SSW,206,5.0,5.0,70,0.00,,,0.47,Wunderground v.1.13,2013-08-31 20:40:00,
2013-08-31 16:45:00,82.1,71.8,29.78,SSE,163,3.0,3.0,71,0.00,,,0.47,Wunderground v.1.13,2013-08-31 20:45:00,
2013-08-31 16:50:00,81.9,71.6,29.77,SSE,154,2.0,6.0,71,0.00,,,0.47,Wunderground v.1.13,2013-08-31 20:50:00,
2013-08-31 17:00:00,81.7,71.8,29.78,SW,219,2.0,2.0,72,0.00,,,0.47,Wunderground v.1.13,2013-08-31 21:00:00,
2013-08-31 17:10:00,81.8,72.7,29.77,SSE,158,1.0,4.0,74,0.00,,,0.47,Wunderground v.1.13,2013-08-31 21:10:00,
2013-08-31 17:20:00,82.2,73.1,29.77,South,176,2.0,5.0,74,0.00,,,0.47,Wunderground v.1.13,2013-08-31 21:20:00,
2013-08-31 17:25:00,82.7,73.6,29.76,SSW,198,1.0,5.0,74,0.00,,,0.47,Wunderground v.1.13,2013-08-31 21:25:00,
2013-08-31 17:35:00,83.3,72.9,29.75,SW,220,3.0,5.0,71,0.00,,,0.47,Wunderground v.1.13,2013-08-31 21:35:00,
2013-08-31 17:40:00,83.6,72.8,29.75,SW,220,3.0,3.0,70,0.00,,,0.47,Wunderground v.1.13,2013-08-31 21:40:00,
2013-08-31 17:50:00,84.1,73.3,29.75,SSW,197,3.0,4.0,70,0.00,,,0.47,Wunderground v.1.13,2013-08-31 21:50:00,
2013-08-31 17:55:00,84.1,73.7,29.76,SSW,207,4.0,4.0,71,0.00,,,0.47,Wunderground v.1.13,2013-08-31 21:55:00,
2013-08-31 18:05:00,84.3,74.3,29.77,SSW,203,1.0,4.0,72,0.00,,,0.47,Wunderground v.1.13,2013-08-31 22:05:00,
2013-08-31 18:15:00,84.1,74.5,29.77,SW,232,1.0,1.0,73,0.00,,,0.47,Wunderground v.1.13,2013-08-31 22:15:00,
2013-08-31 18:25:00,83.8,73.8,29.77,WSW,257,1.0,4.0,72,0.00,,,0.47,Wunderground v.1.13,2013-08-31 22:25:00,
2013-08-31 18:30:00,83.5,73.5,29.77,WSW,257,1.0,1.0,72,0.00,,,0.47,Wunderground v.1.13,2013-08-31 22:30:00,
2013-08-31 18:40:00,82.8,74.1,29.77,SSW,200,1.0,1.0,75,0.00,,,0.47,Wunderground v.1.13,2013-08-31 22:40:00,
2013-08-31 18:50:00,82.0,73.7,29.78,SSW,192,2.0,3.0,76,0.00,,,0.47,Wunderground v.1.13,2013-08-31 22:50:00,
2013-08-31 19:00:00,81.7,73.8,29.78,South,184,2.0,2.0,77,0.00,,,0.47,Wunderground v.1.13,2013-08-31 23:00:00,
2013-08-31 19:10:00,81.4,73.9,29.78,SSW,194,2.0,3.0,78,0.00,,,0.47,Wunderground v.1.13,2013-08-31 23:10:00,
2013-08-31 19:20:00,81.1,73.6,29.78,SSE,167,1.0,1.0,78,0.00,,,0.47,Wunderground v.1.13,2013-08-31 23:20:00,
2013-08-31 19:30:00,80.8,73.7,29.79,South,187,2.0,2.0,79,0.00,,,0.47,Wunderground v.1.13,2013-08-31 23:30:00,
2013-08-31 19:40:00,80.4,72.9,29.79,SSW,203,2.0,3.0,78,0.00,,,0.47,Wunderground v.1.13,2013-08-31 23:40:00,
2013-08-31 19:45:00,80.3,73.2,29.79,South,180,2.0,2.0,79,0.00,,,0.47,Wunderground v.1.13,2013-08-31 23:45:00,
2013-08-31 19:55:00,80.0,73.3,29.79,South,183,2.0,2.0,80,0.00,,,0.47,Wunderground v.1.13,2013-08-31 23:55:00,
2013-08-31 20:05:00,79.6,72.5,29.80,SSW,192,2.0,2.0,79,0.00,,,0.47,Wunderground v.1.13,2013-09-01 00:05:00,
2013-08-31 20:10:00,79.5,72.8,29.80,SSW,212,2.0,2.0,80,0.00,,,0.47,Wunderground v.1.13,2013-09-01 00:10:00,
2013-08-31 20:15:00,79.3,72.6,29.81,SW,232,1.0,1.0,80,0.00,,,0.47,Wunderground v.1.13,2013-09-01 00:15:00,
2013-08-31 20:20:00,79.0,72.3,29.80,SSW,198,1.0,1.0,80,0.00,,,0.47,Wunderground v.1.13,2013-09-01 00:20:00,
2013-08-31 20:30:00,78.8,72.1,29.80,SSW,192,4.0,4.0,80,0.00,,,0.47,Wunderground v.1.13,2013-09-01 00:30:00,
2013-08-31 20:40:00,78.6,72.3,29.80,SSW,196,4.0,4.0,81,0.00,,,0.47,Wunderground v.1.13,2013-09-01 00:40:00,
2013-08-31 20:45:00,78.5,72.2,29.80,South,180,3.0,3.0,81,0.00,,,0.47,Wunderground v.1.13,2013-09-01 00:45:00,
2013-08-31 20:55:00,78.1,72.2,29.80,SW,235,3.0,4.0,82,0.00,,,0.47,Wunderground v.1.13,2013-09-01 00:55:00,
2013-08-31 21:05:00,77.6,72.4,29.80,West,273,1.0,1.0,84,0.00,,,0.47,Wunderground v.1.13,2013-09-01 01:05:00,
2013-08-31 21:15:00,77.0,72.1,29.80,West,273,0.0,0.0,85,0.00,,,0.47,Wunderground v.1.13,2013-09-01 01:15:00,
2013-08-31 21:20:00,76.8,71.9,29.80,WSW,247,0.0,3.0,85,0.00,,,0.47,Wunderground v.1.13,2013-09-01 01:20:00,
2013-08-31 21:30:00,76.6,72.1,29.80,SSW,209,1.0,1.0,86,0.00,,,0.47,Wunderground v.1.13,2013-09-01 01:30:00,
2013-08-31 21:40:00,76.4,71.9,29.80,SSW,209,0.0,0.0,86,0.00,,,0.47,Wunderground v.1.13,2013-09-01 01:40:00,
2013-08-31 21:45:00,76.4,72.2,29.80,SSW,209,0.0,0.0,87,0.00,,,0.47,Wunderground v.1.13,2013-09-01 01:45:00,
2013-08-31 21:55:00,76.2,72.0,29.80,SSW,209,0.0,0.0,87,0.00,,,0.47,Wunderground v.1.13,2013-09-01 01:55:00,
2013-08-31 22:05:00,75.7,71.6,29.80,SSW,202,1.0,1.0,87,0.00,,,0.47,Wunderground v.1.13,2013-09-01 02:05:00,
2013-08-31 22:10:00,75.5,71.7,29.80,SSW,202,1.0,2.0,88,0.00,,,0.47,Wunderground v.1.13,2013-09-01 02:10:00,
2013-08-31 22:20:00,75.1,71.6,29.80,SSW,202,1.0,2.0,89,0.00,,,0.47,Wunderground v.1.13,2013-09-01 02:20:00,
2013-08-31 22:30:00,74.8,71.3,29.81,SE,144,1.0,1.0,89,0.00,,,0.47,Wunderground v.1.13,2013-09-01 02:30:00,
2013-08-31 22:35:00,74.7,70.9,29.81,SE,144,1.0,4.0,88,0.00,,,0.47,Wunderground v.1.13,2013-09-01 02:35:00,
2013-08-31 22:40:00,74.5,70.7,29.81,SE,144,2.0,2.0,88,0.00,,,0.47,Wunderground v.1.13,2013-09-01 02:40:00,
2013-08-31 22:50:00,74.5,70.0,29.81,SE,144,1.0,1.0,86,0.00,,,0.47,Wunderground v.1.13,2013-09-01 02:50:00,
2013-08-31 22:55:00,74.5,70.0,29.80,SE,144,0.0,1.0,86,0.00,,,0.47,Wunderground v.1.13,2013-09-01 02:55:00,
2013-08-31 23:05:00,74.6,69.8,29.80,SE,144,0.0,0.0,85,0.00,,,0.47,Wunderground v.1.13,2013-09-01 03:05:00,
2013-08-31 23:15:00,74.7,69.9,29.80,SE,144,0.0,0.0,85,0.00,,,0.47,Wunderground v.1.13,2013-09-01 03:15:00,
2013-08-31 23:20:00,74.6,70.1,29.80,SE,144,0.0,0.0,86,0.00,,,0.47,Wunderground v.1.13,2013-09-01 03:20:00,
2013-08-31 23:30:00,74.4,70.3,29.80,SE,144,0.0,0.0,87,0.00,,,0.47,Wunderground v.1.13,2013-09-01 03:30:00,
2013-08-31 23:40:00,74.2,70.1,29.80,SE,144,0.0,0.0,87,0.00,,,0.47,Wunderground v.1.13,2013-09-01 03:40:00,
2013-08-31 23:50:00,73.9,70.1,29.80,SE,144,0.0,0.0,88,0.00,,,0.47,Wunderground v.1.13,2013-09-01 03:50:00,
2013-08-31 23:55:00,73.8,70.0,29.80,SE,144,0.0,0.0,88,0.00,,,0.47,Wunderground v.1.13,2013-09-01 03:55:00,